sensor_id;sensor_type;location;lat;lon;timestamp;P1;durP1;ratioP1;P2;durP2;ratioP2
76892;SDS011;65854;51.466;7.260;2023-02-01T00:01:37;21.60;;;8.00;;
76892;SDS011;65854;51.466;7.260;2023-02-01T00:04:03;22.40;;;8.40;;
76892;SDS011;65854;51.466;7.260;2023-02-01T00:06:28;25.57;;;8.10;;
76892;SDS011;65854;51.466;7.260;2023-02-01T00:08:54;21.73;;;6.90;;
76892;SDS011;65854;51.466;7.260;2023-02-01T00:11:20;23.50;;;7.20;;
76892;SDS011;65854;51.466;7.260;2023-02-01T00:13:47;23.50;;;7.03;;
76892;SDS011;65854;51.466;7.260;2023-02-01T00:16:14;23.85;;;7.00;;
76892;SDS011;65854;51.466;7.260;2023-02-01T00:18:42;15.13;;;5.05;;
76892;SDS011;65854;51.466;7.260;2023-02-01T00:21:09;19.33;;;5.50;;
76892;SDS011;65854;51.466;7.260;2023-02-01T00:23:36;21.30;;;5.32;;
76892;SDS011;65854;51.466;7.260;2023-02-01T00:26:03;20.65;;;4.80;;
76892;SDS011;65854;51.466;7.260;2023-02-01T00:28:30;11.07;;;3.75;;
76892;SDS011;65854;51.466;7.260;2023-02-01T00:30:59;18.77;;;4.53;;
76892;SDS011;65854;51.466;7.260;2023-02-01T00:33:25;18.20;;;4.10;;
76892;SDS011;65854;51.466;7.260;2023-02-01T00:35:56;14.50;;;3.72;;
76892;SDS011;65854;51.466;7.260;2023-02-01T00:38:26;16.92;;;3.83;;
76892;SDS011;65854;51.466;7.260;2023-02-01T00:40:52;17.70;;;3.80;;
76892;SDS011;65854;51.466;7.260;2023-02-01T00:43:17;18.47;;;3.43;;
76892;SDS011;65854;51.466;7.260;2023-02-01T00:45:43;16.87;;;3.37;;
76892;SDS011;65854;51.466;7.260;2023-02-01T00:48:10;18.10;;;3.60;;
76892;SDS011;65854;51.466;7.260;2023-02-01T00:50:40;17.10;;;3.17;;
76892;SDS011;65854;51.466;7.260;2023-02-01T00:53:09;15.33;;;3.10;;
76892;SDS011;65854;51.466;7.260;2023-02-01T00:55:35;11.65;;;2.90;;
76892;SDS011;65854;51.466;7.260;2023-02-01T00:58:01;14.07;;;2.92;;
76892;SDS011;65854;51.466;7.260;2023-02-01T01:00:27;13.90;;;3.00;;
76892;SDS011;65854;51.466;7.260;2023-02-01T01:02:56;15.93;;;3.35;;
76892;SDS011;65854;51.466;7.260;2023-02-01T01:05:21;16.43;;;2.63;;
76892;SDS011;65854;51.466;7.260;2023-02-01T01:07:47;11.13;;;3.03;;
76892;SDS011;65854;51.466;7.260;2023-02-01T01:10:12;16.33;;;2.57;;
76892;SDS011;65854;51.466;7.260;2023-02-01T01:12:38;15.73;;;2.97;;
76892;SDS011;65854;51.466;7.260;2023-02-01T01:15:04;19.45;;;3.25;;
76892;SDS011;65854;51.466;7.260;2023-02-01T01:17:30;14.40;;;3.40;;
76892;SDS011;65854;51.466;7.260;2023-02-01T01:19:56;15.85;;;3.33;;
76892;SDS011;65854;51.466;7.260;2023-02-01T01:22:22;16.63;;;3.07;;
76892;SDS011;65854;51.466;7.260;2023-02-01T01:24:47;14.67;;;3.30;;
76892;SDS011;65854;51.466;7.260;2023-02-01T01:27:13;16.25;;;3.53;;
76892;SDS011;65854;51.466;7.260;2023-02-01T01:29:38;12.30;;;3.00;;
76892;SDS011;65854;51.466;7.260;2023-02-01T01:32:04;17.10;;;3.20;;
76892;SDS011;65854;51.466;7.260;2023-02-01T01:34:30;14.23;;;3.22;;
76892;SDS011;65854;51.466;7.260;2023-02-01T01:36:55;16.93;;;3.43;;
76892;SDS011;65854;51.466;7.260;2023-02-01T01:39:21;17.20;;;3.30;;
76892;SDS011;65854;51.466;7.260;2023-02-01T01:41:46;18.40;;;3.63;;
76892;SDS011;65854;51.466;7.260;2023-02-01T01:47:15;16.48;;;3.70;;
76892;SDS011;65854;51.466;7.260;2023-02-01T01:49:41;14.00;;;3.53;;
76892;SDS011;65854;51.466;7.260;2023-02-01T01:52:07;13.88;;;3.50;;
76892;SDS011;65854;51.466;7.260;2023-02-01T01:54:43;13.73;;;3.70;;
76892;SDS011;65854;51.466;7.260;2023-02-01T01:57:14;17.40;;;3.97;;
76892;SDS011;65854;51.466;7.260;2023-02-01T01:59:43;15.38;;;3.58;;
76892;SDS011;65854;51.466;7.260;2023-02-01T02:02:15;13.68;;;3.53;;
76892;SDS011;65854;51.466;7.260;2023-02-01T02:04:41;18.70;;;3.58;;
76892;SDS011;65854;51.466;7.260;2023-02-01T02:07:08;16.15;;;3.80;;
76892;SDS011;65854;51.466;7.260;2023-02-01T02:09:55;18.45;;;3.97;;
76892;SDS011;65854;51.466;7.260;2023-02-01T02:12:22;15.25;;;3.85;;
76892;SDS011;65854;51.466;7.260;2023-02-01T02:14:48;15.70;;;3.93;;
76892;SDS011;65854;51.466;7.260;2023-02-01T02:20:36;18.30;;;4.15;;
76892;SDS011;65854;51.466;7.260;2023-02-01T02:42:50;15.20;;;3.35;;
76892;SDS011;65854;51.466;7.260;2023-02-01T02:45:47;19.50;;;3.05;;
76892;SDS011;65854;51.466;7.260;2023-02-01T02:48:42;15.07;;;2.67;;
76892;SDS011;65854;51.466;7.260;2023-02-01T02:51:42;13.27;;;2.40;;
76892;SDS011;65854;51.466;7.260;2023-02-01T02:54:32;17.70;;;2.70;;
76892;SDS011;65854;51.466;7.260;2023-02-01T03:00:11;17.45;;;2.85;;
76892;SDS011;65854;51.466;7.260;2023-02-01T03:02:58;13.27;;;2.42;;
76892;SDS011;65854;51.466;7.260;2023-02-01T03:05:44;14.23;;;2.20;;
76892;SDS011;65854;51.466;7.260;2023-02-01T03:08:16;14.25;;;2.72;;
76892;SDS011;65854;51.466;7.260;2023-02-01T03:10:49;12.82;;;2.30;;
76892;SDS011;65854;51.466;7.260;2023-02-01T03:13:37;15.93;;;2.15;;
76892;SDS011;65854;51.466;7.260;2023-02-01T03:16:18;12.68;;;2.17;;
76892;SDS011;65854;51.466;7.260;2023-02-01T03:19:12;13.23;;;2.00;;
76892;SDS011;65854;51.466;7.260;2023-02-01T03:21:44;9.77;;;2.00;;
76892;SDS011;65854;51.466;7.260;2023-02-01T03:24:17;17.02;;;2.60;;
76892;SDS011;65854;51.466;7.260;2023-02-01T03:26:58;14.30;;;2.28;;
76892;SDS011;65854;51.466;7.260;2023-02-01T03:29:33;20.02;;;3.03;;
76892;SDS011;65854;51.466;7.260;2023-02-01T03:32:07;18.00;;;2.33;;
76892;SDS011;65854;51.466;7.260;2023-02-01T03:34:34;16.52;;;2.65;;
76892;SDS011;65854;51.466;7.260;2023-02-01T03:37:02;15.85;;;1.95;;
76892;SDS011;65854;51.466;7.260;2023-02-01T03:39:31;13.30;;;2.20;;
76892;SDS011;65854;51.466;7.260;2023-02-01T03:42:14;15.95;;;2.40;;
76892;SDS011;65854;51.466;7.260;2023-02-01T03:47:23;10.32;;;2.10;;
76892;SDS011;65854;51.466;7.260;2023-02-01T03:49:52;13.40;;;2.65;;
76892;SDS011;65854;51.466;7.260;2023-02-01T03:52:27;10.13;;;1.87;;
76892;SDS011;65854;51.466;7.260;2023-02-01T03:54:57;12.65;;;2.20;;
76892;SDS011;65854;51.466;7.260;2023-02-01T03:57:29;14.75;;;2.45;;
76892;SDS011;65854;51.466;7.260;2023-02-01T04:02:48;10.98;;;2.30;;
76892;SDS011;65854;51.466;7.260;2023-02-01T04:05:14;11.87;;;1.80;;
76892;SDS011;65854;51.466;7.260;2023-02-01T04:07:39;12.10;;;2.58;;
76892;SDS011;65854;51.466;7.260;2023-02-01T04:10:05;14.37;;;2.03;;
76892;SDS011;65854;51.466;7.260;2023-02-01T04:12:31;15.05;;;2.50;;
76892;SDS011;65854;51.466;7.260;2023-02-01T04:14:57;15.52;;;2.50;;
76892;SDS011;65854;51.466;7.260;2023-02-01T04:17:23;14.57;;;2.25;;
76892;SDS011;65854;51.466;7.260;2023-02-01T04:19:48;16.42;;;2.47;;
76892;SDS011;65854;51.466;7.260;2023-02-01T04:22:14;19.63;;;3.03;;
76892;SDS011;65854;51.466;7.260;2023-02-01T04:24:39;18.97;;;3.03;;
76892;SDS011;65854;51.466;7.260;2023-02-01T04:27:05;17.15;;;2.30;;
76892;SDS011;65854;51.466;7.260;2023-02-01T04:29:31;12.50;;;2.03;;
76892;SDS011;65854;51.466;7.260;2023-02-01T04:31:56;12.73;;;2.40;;
76892;SDS011;65854;51.466;7.260;2023-02-01T04:34:22;19.00;;;2.92;;
76892;SDS011;65854;51.466;7.260;2023-02-01T04:36:49;15.00;;;2.50;;
76892;SDS011;65854;51.466;7.260;2023-02-01T04:39:15;16.80;;;2.63;;
76892;SDS011;65854;51.466;7.260;2023-02-01T04:41:41;13.93;;;2.38;;
76892;SDS011;65854;51.466;7.260;2023-02-01T04:44:08;16.20;;;3.27;;
76892;SDS011;65854;51.466;7.260;2023-02-01T04:46:38;16.20;;;2.40;;
76892;SDS011;65854;51.466;7.260;2023-02-01T04:49:03;20.30;;;3.27;;
76892;SDS011;65854;51.466;7.260;2023-02-01T04:51:29;17.70;;;2.40;;
76892;SDS011;65854;51.466;7.260;2023-02-01T04:53:55;14.80;;;2.30;;
76892;SDS011;65854;51.466;7.260;2023-02-01T04:56:21;13.32;;;2.17;;
76892;SDS011;65854;51.466;7.260;2023-02-01T04:58:46;14.77;;;2.70;;
76892;SDS011;65854;51.466;7.260;2023-02-01T05:01:12;14.30;;;2.60;;
76892;SDS011;65854;51.466;7.260;2023-02-01T05:03:37;21.17;;;2.60;;
76892;SDS011;65854;51.466;7.260;2023-02-01T05:06:03;16.60;;;2.45;;
76892;SDS011;65854;51.466;7.260;2023-02-01T05:08:29;15.30;;;2.53;;
76892;SDS011;65854;51.466;7.260;2023-02-01T05:10:56;18.33;;;2.53;;
76892;SDS011;65854;51.466;7.260;2023-02-01T05:13:22;15.50;;;2.88;;
76892;SDS011;65854;51.466;7.260;2023-02-01T05:16:06;17.30;;;2.40;;
76892;SDS011;65854;51.466;7.260;2023-02-01T05:18:32;16.08;;;2.20;;
76892;SDS011;65854;51.466;7.260;2023-02-01T05:20:57;14.10;;;2.37;;
76892;SDS011;65854;51.466;7.260;2023-02-01T05:23:23;18.38;;;3.72;;
76892;SDS011;65854;51.466;7.260;2023-02-01T05:25:48;18.75;;;2.88;;
76892;SDS011;65854;51.466;7.260;2023-02-01T05:28:14;20.47;;;2.60;;
76892;SDS011;65854;51.466;7.260;2023-02-01T05:30:39;15.00;;;2.40;;
76892;SDS011;65854;51.466;7.260;2023-02-01T05:33:05;20.05;;;2.83;;
76892;SDS011;65854;51.466;7.260;2023-02-01T05:35:30;14.73;;;2.40;;
76892;SDS011;65854;51.466;7.260;2023-02-01T05:37:56;18.83;;;3.03;;
76892;SDS011;65854;51.466;7.260;2023-02-01T05:40:22;10.57;;;1.98;;
76892;SDS011;65854;51.466;7.260;2023-02-01T05:42:47;18.50;;;2.47;;
76892;SDS011;65854;51.466;7.260;2023-02-01T05:45:13;16.67;;;2.92;;
76892;SDS011;65854;51.466;7.260;2023-02-01T05:47:39;14.77;;;2.17;;
76892;SDS011;65854;51.466;7.260;2023-02-01T05:50:04;15.10;;;2.50;;
76892;SDS011;65854;51.466;7.260;2023-02-01T05:52:31;14.18;;;2.35;;
76892;SDS011;65854;51.466;7.260;2023-02-01T05:54:57;12.43;;;1.83;;
76892;SDS011;65854;51.466;7.260;2023-02-01T05:57:23;18.10;;;2.83;;
76892;SDS011;65854;51.466;7.260;2023-02-01T05:59:48;16.80;;;2.10;;
76892;SDS011;65854;51.466;7.260;2023-02-01T06:02:14;16.87;;;2.70;;
76892;SDS011;65854;51.466;7.260;2023-02-01T06:04:41;16.40;;;2.75;;
76892;SDS011;65854;51.466;7.260;2023-02-01T06:07:07;15.60;;;2.35;;
76892;SDS011;65854;51.466;7.260;2023-02-01T06:09:35;10.80;;;2.37;;
76892;SDS011;65854;51.466;7.260;2023-02-01T06:12:04;9.18;;;2.15;;
76892;SDS011;65854;51.466;7.260;2023-02-01T06:14:29;13.15;;;2.15;;
76892;SDS011;65854;51.466;7.260;2023-02-01T06:16:55;14.47;;;2.80;;
76892;SDS011;65854;51.466;7.260;2023-02-01T06:19:21;18.37;;;2.70;;
76892;SDS011;65854;51.466;7.260;2023-02-01T06:21:47;20.55;;;2.47;;
76892;SDS011;65854;51.466;7.260;2023-02-01T06:24:13;18.48;;;2.65;;
76892;SDS011;65854;51.466;7.260;2023-02-01T06:26:39;18.13;;;3.42;;
76892;SDS011;65854;51.466;7.260;2023-02-01T06:29:05;18.27;;;3.07;;
76892;SDS011;65854;51.466;7.260;2023-02-01T06:31:31;17.98;;;2.33;;
76892;SDS011;65854;51.466;7.260;2023-02-01T06:33:57;16.90;;;2.25;;
76892;SDS011;65854;51.466;7.260;2023-02-01T06:36:23;17.23;;;2.30;;
76892;SDS011;65854;51.466;7.260;2023-02-01T06:38:48;15.68;;;2.20;;
76892;SDS011;65854;51.466;7.260;2023-02-01T06:41:14;19.07;;;2.63;;
76892;SDS011;65854;51.466;7.260;2023-02-01T06:43:40;17.75;;;2.50;;
76892;SDS011;65854;51.466;7.260;2023-02-01T06:46:06;13.73;;;3.07;;
76892;SDS011;65854;51.466;7.260;2023-02-01T06:48:34;15.02;;;2.33;;
76892;SDS011;65854;51.466;7.260;2023-02-01T06:51:00;13.53;;;2.40;;
76892;SDS011;65854;51.466;7.260;2023-02-01T06:53:26;16.25;;;2.70;;
76892;SDS011;65854;51.466;7.260;2023-02-01T06:55:58;12.00;;;2.13;;
76892;SDS011;65854;51.466;7.260;2023-02-01T06:58:32;19.08;;;2.78;;
76892;SDS011;65854;51.466;7.260;2023-02-01T07:01:03;13.82;;;2.08;;
76892;SDS011;65854;51.466;7.260;2023-02-01T07:03:33;18.58;;;3.00;;
76892;SDS011;65854;51.466;7.260;2023-02-01T07:05:58;13.20;;;1.93;;
76892;SDS011;65854;51.466;7.260;2023-02-01T07:08:24;15.32;;;2.38;;
76892;SDS011;65854;51.466;7.260;2023-02-01T07:10:52;25.03;;;3.63;;
76892;SDS011;65854;51.466;7.260;2023-02-01T07:13:18;14.93;;;2.33;;
76892;SDS011;65854;51.466;7.260;2023-02-01T07:15:44;14.93;;;2.45;;
76892;SDS011;65854;51.466;7.260;2023-02-01T07:18:11;17.63;;;2.75;;
76892;SDS011;65854;51.466;7.260;2023-02-01T07:20:39;15.17;;;2.77;;
76892;SDS011;65854;51.466;7.260;2023-02-01T07:23:05;20.75;;;2.63;;
76892;SDS011;65854;51.466;7.260;2023-02-01T07:25:30;14.35;;;2.10;;
76892;SDS011;65854;51.466;7.260;2023-02-01T07:27:56;16.27;;;2.10;;
76892;SDS011;65854;51.466;7.260;2023-02-01T07:30:22;19.33;;;2.45;;
76892;SDS011;65854;51.466;7.260;2023-02-01T07:32:48;14.40;;;2.80;;
76892;SDS011;65854;51.466;7.260;2023-02-01T07:35:14;17.35;;;2.40;;
76892;SDS011;65854;51.466;7.260;2023-02-01T07:37:39;16.20;;;3.17;;
76892;SDS011;65854;51.466;7.260;2023-02-01T07:40:05;19.88;;;2.70;;
76892;SDS011;65854;51.466;7.260;2023-02-01T07:42:32;19.88;;;2.63;;
76892;SDS011;65854;51.466;7.260;2023-02-01T07:44:58;16.75;;;2.33;;
76892;SDS011;65854;51.466;7.260;2023-02-01T07:47:24;16.33;;;2.50;;
76892;SDS011;65854;51.466;7.260;2023-02-01T07:49:49;13.57;;;2.53;;
76892;SDS011;65854;51.466;7.260;2023-02-01T07:52:15;16.60;;;2.50;;
76892;SDS011;65854;51.466;7.260;2023-02-01T07:54:40;14.70;;;2.73;;
76892;SDS011;65854;51.466;7.260;2023-02-01T07:57:06;21.60;;;3.07;;
76892;SDS011;65854;51.466;7.260;2023-02-01T07:59:33;19.98;;;3.13;;
76892;SDS011;65854;51.466;7.260;2023-02-01T08:01:59;18.63;;;3.13;;
76892;SDS011;65854;51.466;7.260;2023-02-01T08:04:24;17.47;;;3.10;;
76892;SDS011;65854;51.466;7.260;2023-02-01T08:06:50;16.27;;;2.60;;
76892;SDS011;65854;51.466;7.260;2023-02-01T08:09:15;16.10;;;2.80;;
76892;SDS011;65854;51.466;7.260;2023-02-01T08:11:41;21.80;;;3.30;;
76892;SDS011;65854;51.466;7.260;2023-02-01T08:14:07;16.17;;;2.90;;
76892;SDS011;65854;51.466;7.260;2023-02-01T08:16:32;19.02;;;3.55;;
76892;SDS011;65854;51.466;7.260;2023-02-01T08:19:00;16.13;;;3.10;;
76892;SDS011;65854;51.466;7.260;2023-02-01T08:21:26;12.45;;;2.80;;
76892;SDS011;65854;51.466;7.260;2023-02-01T08:24:01;18.45;;;3.38;;
76892;SDS011;65854;51.466;7.260;2023-02-01T08:26:31;16.20;;;2.90;;
76892;SDS011;65854;51.466;7.260;2023-02-01T08:28:58;17.67;;;3.80;;
76892;SDS011;65854;51.466;7.260;2023-02-01T08:31:26;15.82;;;3.67;;
76892;SDS011;65854;51.466;7.260;2023-02-01T08:33:54;14.95;;;3.40;;
76892;SDS011;65854;51.466;7.260;2023-02-01T08:36:23;16.73;;;3.40;;
76892;SDS011;65854;51.466;7.260;2023-02-01T08:38:50;14.57;;;3.57;;
76892;SDS011;65854;51.466;7.260;2023-02-01T08:41:17;19.77;;;3.72;;
76892;SDS011;65854;51.466;7.260;2023-02-01T08:43:45;20.15;;;2.95;;
76892;SDS011;65854;51.466;7.260;2023-02-01T08:46:11;21.53;;;3.20;;
76892;SDS011;65854;51.466;7.260;2023-02-01T08:48:37;21.27;;;3.78;;
76892;SDS011;65854;51.466;7.260;2023-02-01T08:51:04;11.45;;;2.75;;
76892;SDS011;65854;51.466;7.260;2023-02-01T08:53:31;18.83;;;3.55;;
76892;SDS011;65854;51.466;7.260;2023-02-01T08:55:57;15.50;;;2.58;;
76892;SDS011;65854;51.466;7.260;2023-02-01T08:58:22;21.50;;;3.77;;
76892;SDS011;65854;51.466;7.260;2023-02-01T09:00:48;26.95;;;4.30;;
76892;SDS011;65854;51.466;7.260;2023-02-01T09:03:14;15.85;;;3.47;;
76892;SDS011;65854;51.466;7.260;2023-02-01T09:05:41;14.45;;;3.47;;
76892;SDS011;65854;51.466;7.260;2023-02-01T09:08:06;17.90;;;3.30;;
76892;SDS011;65854;51.466;7.260;2023-02-01T09:10:33;20.05;;;3.30;;
76892;SDS011;65854;51.466;7.260;2023-02-01T09:12:59;17.58;;;3.50;;
76892;SDS011;65854;51.466;7.260;2023-02-01T09:15:25;17.23;;;3.50;;
76892;SDS011;65854;51.466;7.260;2023-02-01T09:17:51;17.20;;;3.47;;
76892;SDS011;65854;51.466;7.260;2023-02-01T09:20:16;15.07;;;3.30;;
76892;SDS011;65854;51.466;7.260;2023-02-01T09:22:43;16.42;;;3.22;;
76892;SDS011;65854;51.466;7.260;2023-02-01T09:25:09;21.03;;;4.73;;
76892;SDS011;65854;51.466;7.260;2023-02-01T09:27:35;20.47;;;3.70;;
76892;SDS011;65854;51.466;7.260;2023-02-01T09:30:01;19.90;;;3.47;;
76892;SDS011;65854;51.466;7.260;2023-02-01T09:32:27;15.45;;;3.25;;
76892;SDS011;65854;51.466;7.260;2023-02-01T09:34:52;15.63;;;3.73;;
76892;SDS011;65854;51.466;7.260;2023-02-01T09:37:18;17.25;;;3.88;;
76892;SDS011;65854;51.466;7.260;2023-02-01T09:39:45;14.50;;;3.40;;
76892;SDS011;65854;51.466;7.260;2023-02-01T09:42:32;13.32;;;2.80;;
76892;SDS011;65854;51.466;7.260;2023-02-01T09:47:55;15.00;;;3.40;;
76892;SDS011;65854;51.466;7.260;2023-02-01T09:50:34;20.03;;;3.63;;
76892;SDS011;65854;51.466;7.260;2023-02-01T09:55:50;17.02;;;3.50;;
76892;SDS011;65854;51.466;7.260;2023-02-01T09:58:35;20.88;;;3.67;;
76892;SDS011;65854;51.466;7.260;2023-02-01T10:01:04;17.35;;;4.30;;
76892;SDS011;65854;51.466;7.260;2023-02-01T10:03:37;17.15;;;3.53;;
76892;SDS011;65854;51.466;7.260;2023-02-01T10:06:14;11.20;;;3.25;;
76892;SDS011;65854;51.466;7.260;2023-02-01T10:08:52;13.93;;;3.60;;
76892;SDS011;65854;51.466;7.260;2023-02-01T10:11:47;17.83;;;3.40;;
76892;SDS011;65854;51.466;7.260;2023-02-01T10:21:02;15.50;;;4.00;;
76892;SDS011;65854;51.466;7.260;2023-02-01T10:26:25;22.10;;;4.00;;
76892;SDS011;65854;51.466;7.260;2023-02-01T10:28:58;15.88;;;4.00;;
76892;SDS011;65854;51.466;7.260;2023-02-01T10:31:31;11.95;;;2.85;;
76892;SDS011;65854;51.466;7.260;2023-02-01T10:34:00;19.90;;;4.30;;
76892;SDS011;65854;51.466;7.260;2023-02-01T10:36:49;16.52;;;3.55;;
76892;SDS011;65854;51.466;7.260;2023-02-01T10:39:18;18.77;;;3.78;;
76892;SDS011;65854;51.466;7.260;2023-02-01T10:41:44;19.65;;;3.80;;
76892;SDS011;65854;51.466;7.260;2023-02-01T10:44:11;19.20;;;3.83;;
76892;SDS011;65854;51.466;7.260;2023-02-01T10:46:39;19.90;;;4.40;;
76892;SDS011;65854;51.466;7.260;2023-02-01T10:49:04;18.65;;;4.22;;
76892;SDS011;65854;51.466;7.260;2023-02-01T10:51:48;14.60;;;3.22;;
76892;SDS011;65854;51.466;7.260;2023-02-01T10:54:20;30.77;;;4.07;;
76892;SDS011;65854;51.466;7.260;2023-02-01T10:56:48;16.40;;;3.65;;
76892;SDS011;65854;51.466;7.260;2023-02-01T10:59:15;21.35;;;3.63;;
76892;SDS011;65854;51.466;7.260;2023-02-01T11:01:44;17.67;;;2.92;;
76892;SDS011;65854;51.466;7.260;2023-02-01T11:04:18;16.92;;;4.00;;
76892;SDS011;65854;51.466;7.260;2023-02-01T11:06:46;11.20;;;2.87;;
76892;SDS011;65854;51.466;7.260;2023-02-01T11:09:16;15.77;;;3.55;;
76892;SDS011;65854;51.466;7.260;2023-02-01T11:16:46;14.43;;;3.05;;
76892;SDS011;65854;51.466;7.260;2023-02-01T11:19:18;14.68;;;3.30;;
76892;SDS011;65854;51.466;7.260;2023-02-01T11:21:44;25.00;;;3.50;;
76892;SDS011;65854;51.466;7.260;2023-02-01T11:24:18;17.00;;;3.17;;
76892;SDS011;65854;51.466;7.260;2023-02-01T11:26:59;15.90;;;3.10;;
76892;SDS011;65854;51.466;7.260;2023-02-01T11:29:28;12.90;;;3.10;;
76892;SDS011;65854;51.466;7.260;2023-02-01T11:31:59;15.73;;;3.33;;
76892;SDS011;65854;51.466;7.260;2023-02-01T11:34:34;16.80;;;3.53;;
76892;SDS011;65854;51.466;7.260;2023-02-01T11:37:03;17.13;;;3.27;;
76892;SDS011;65854;51.466;7.260;2023-02-01T11:39:30;16.95;;;3.53;;
76892;SDS011;65854;51.466;7.260;2023-02-01T11:42:03;14.57;;;3.40;;
76892;SDS011;65854;51.466;7.260;2023-02-01T11:44:39;15.77;;;3.40;;
76892;SDS011;65854;51.466;7.260;2023-02-01T11:47:20;15.60;;;3.20;;
76892;SDS011;65854;51.466;7.260;2023-02-01T11:50:00;15.67;;;3.40;;
76892;SDS011;65854;51.466;7.260;2023-02-01T12:19:46;20.83;;;3.95;;
76892;SDS011;65854;51.466;7.260;2023-02-01T12:33:15;18.33;;;3.88;;
76892;SDS011;65854;51.466;7.260;2023-02-01T12:36:06;18.05;;;3.60;;
76892;SDS011;65854;51.466;7.260;2023-02-01T12:38:44;15.38;;;3.20;;
76892;SDS011;65854;51.466;7.260;2023-02-01T12:44:27;17.50;;;3.37;;
76892;SDS011;65854;51.466;7.260;2023-02-01T12:52:15;15.13;;;3.17;;
76892;SDS011;65854;51.466;7.260;2023-02-01T12:57:40;24.40;;;3.47;;
76892;SDS011;65854;51.466;7.260;2023-02-01T13:03:16;16.07;;;2.90;;
76892;SDS011;65854;51.466;7.260;2023-02-01T13:06:15;16.83;;;3.10;;
76892;SDS011;65854;51.466;7.260;2023-02-01T13:08:47;12.93;;;2.83;;
76892;SDS011;65854;51.466;7.260;2023-02-01T13:11:37;14.13;;;2.45;;
76892;SDS011;65854;51.466;7.260;2023-02-01T13:16:39;16.50;;;3.17;;
76892;SDS011;65854;51.466;7.260;2023-02-01T13:22:12;16.80;;;2.92;;
76892;SDS011;65854;51.466;7.260;2023-02-01T13:27:13;14.00;;;2.22;;
76892;SDS011;65854;51.466;7.260;2023-02-01T13:32:28;10.48;;;2.13;;
76892;SDS011;65854;51.466;7.260;2023-02-01T13:35:32;19.23;;;3.22;;
76892;SDS011;65854;51.466;7.260;2023-02-01T13:44:26;11.00;;;2.00;;
76892;SDS011;65854;51.466;7.260;2023-02-01T13:46:50;14.13;;;2.55;;
76892;SDS011;65854;51.466;7.260;2023-02-01T13:49:22;13.18;;;2.22;;
76892;SDS011;65854;51.466;7.260;2023-02-01T13:51:51;10.73;;;1.80;;
76892;SDS011;65854;51.466;7.260;2023-02-01T14:08:11;12.27;;;1.98;;
76892;SDS011;65854;51.466;7.260;2023-02-01T14:29:22;14.75;;;2.42;;
76892;SDS011;65854;51.466;7.260;2023-02-01T14:37:23;16.47;;;2.23;;
76892;SDS011;65854;51.466;7.260;2023-02-01T14:39:59;14.10;;;2.13;;
76892;SDS011;65854;51.466;7.260;2023-02-01T14:42:47;11.25;;;2.00;;
76892;SDS011;65854;51.466;7.260;2023-02-01T14:55:38;15.15;;;3.40;;
76892;SDS011;65854;51.466;7.260;2023-02-01T14:58:35;15.38;;;2.00;;
76892;SDS011;65854;51.466;7.260;2023-02-01T15:01:27;14.73;;;1.95;;
76892;SDS011;65854;51.466;7.260;2023-02-01T15:04:00;10.60;;;1.80;;
76892;SDS011;65854;51.466;7.260;2023-02-01T15:11:54;11.45;;;2.08;;
76892;SDS011;65854;51.466;7.260;2023-02-01T15:14:26;15.27;;;2.00;;
76892;SDS011;65854;51.466;7.260;2023-02-01T15:16:54;13.67;;;1.80;;
76892;SDS011;65854;51.466;7.260;2023-02-01T15:19:24;12.93;;;2.25;;
76892;SDS011;65854;51.466;7.260;2023-02-01T15:21:52;14.13;;;2.65;;
76892;SDS011;65854;51.466;7.260;2023-02-01T15:26:53;12.50;;;1.80;;
76892;SDS011;65854;51.466;7.260;2023-02-01T15:29:21;13.37;;;2.43;;
76892;SDS011;65854;51.466;7.260;2023-02-01T15:31:52;15.82;;;2.15;;
76892;SDS011;65854;51.466;7.260;2023-02-01T15:34:18;17.00;;;1.80;;
76892;SDS011;65854;51.466;7.260;2023-02-01T15:36:45;12.35;;;2.15;;
76892;SDS011;65854;51.466;7.260;2023-02-01T15:39:21;11.68;;;2.13;;
76892;SDS011;65854;51.466;7.260;2023-02-01T15:41:54;11.17;;;1.90;;
76892;SDS011;65854;51.466;7.260;2023-02-01T15:44:39;13.57;;;2.03;;
76892;SDS011;65854;51.466;7.260;2023-02-01T15:47:16;12.60;;;2.10;;
76892;SDS011;65854;51.466;7.260;2023-02-01T15:49:50;15.65;;;2.33;;
76892;SDS011;65854;51.466;7.260;2023-02-01T15:52:24;14.05;;;2.50;;
76892;SDS011;65854;51.466;7.260;2023-02-01T15:54:54;13.67;;;2.10;;
76892;SDS011;65854;51.466;7.260;2023-02-01T15:57:25;13.07;;;2.20;;
76892;SDS011;65854;51.466;7.260;2023-02-01T15:59:55;16.50;;;2.00;;
76892;SDS011;65854;51.466;7.260;2023-02-01T16:02:33;15.50;;;2.20;;
76892;SDS011;65854;51.466;7.260;2023-02-01T16:07:59;10.83;;;2.20;;
76892;SDS011;65854;51.466;7.260;2023-02-01T16:10:29;13.93;;;2.25;;
76892;SDS011;65854;51.466;7.260;2023-02-01T16:12:55;13.38;;;2.20;;
76892;SDS011;65854;51.466;7.260;2023-02-01T16:15:25;12.77;;;2.28;;
76892;SDS011;65854;51.466;7.260;2023-02-01T16:17:54;13.75;;;2.00;;
76892;SDS011;65854;51.466;7.260;2023-02-01T16:20:20;15.77;;;2.07;;
76892;SDS011;65854;51.466;7.260;2023-02-01T16:22:46;14.10;;;2.65;;
76892;SDS011;65854;51.466;7.260;2023-02-01T16:25:11;13.33;;;2.30;;
76892;SDS011;65854;51.466;7.260;2023-02-01T16:27:37;10.83;;;2.13;;
76892;SDS011;65854;51.466;7.260;2023-02-01T16:30:03;14.20;;;2.22;;
76892;SDS011;65854;51.466;7.260;2023-02-01T16:32:29;19.38;;;2.75;;
76892;SDS011;65854;51.466;7.260;2023-02-01T16:34:55;13.33;;;2.60;;
76892;SDS011;65854;51.466;7.260;2023-02-01T16:37:22;16.33;;;2.17;;
76892;SDS011;65854;51.466;7.260;2023-02-01T16:39:49;13.65;;;2.20;;
76892;SDS011;65854;51.466;7.260;2023-02-01T16:42:15;16.17;;;3.07;;
76892;SDS011;65854;51.466;7.260;2023-02-01T16:44:41;14.55;;;2.33;;
76892;SDS011;65854;51.466;7.260;2023-02-01T16:47:16;15.03;;;2.70;;
76892;SDS011;65854;51.466;7.260;2023-02-01T16:49:44;13.35;;;2.80;;
76892;SDS011;65854;51.466;7.260;2023-02-01T16:52:14;12.82;;;2.45;;
76892;SDS011;65854;51.466;7.260;2023-02-01T16:54:48;12.57;;;2.35;;
76892;SDS011;65854;51.466;7.260;2023-02-01T16:57:15;19.03;;;3.20;;
76892;SDS011;65854;51.466;7.260;2023-02-01T16:59:42;18.48;;;2.90;;
76892;SDS011;65854;51.466;7.260;2023-02-01T17:02:13;13.95;;;2.88;;
76892;SDS011;65854;51.466;7.260;2023-02-01T17:04:40;14.75;;;3.03;;
76892;SDS011;65854;51.466;7.260;2023-02-01T17:07:05;17.53;;;2.90;;
76892;SDS011;65854;51.466;7.260;2023-02-01T17:09:35;11.73;;;2.35;;
76892;SDS011;65854;51.466;7.260;2023-02-01T17:12:02;10.60;;;2.28;;
76892;SDS011;65854;51.466;7.260;2023-02-01T17:14:29;16.45;;;2.85;;
76892;SDS011;65854;51.466;7.260;2023-02-01T17:16:57;22.85;;;2.75;;
76892;SDS011;65854;51.466;7.260;2023-02-01T17:19:22;13.93;;;2.23;;
76892;SDS011;65854;51.466;7.260;2023-02-01T17:21:49;11.65;;;1.77;;
76892;SDS011;65854;51.466;7.260;2023-02-01T17:24:19;9.57;;;1.80;;
76892;SDS011;65854;51.466;7.260;2023-02-01T17:26:47;6.20;;;1.50;;
76892;SDS011;65854;51.466;7.260;2023-02-01T17:29:15;11.23;;;1.98;;
76892;SDS011;65854;51.466;7.260;2023-02-01T17:31:42;11.17;;;2.20;;
76892;SDS011;65854;51.466;7.260;2023-02-01T17:34:11;11.98;;;2.40;;
76892;SDS011;65854;51.466;7.260;2023-02-01T17:36:39;8.77;;;2.88;;
76892;SDS011;65854;51.466;7.260;2023-02-01T17:39:05;13.68;;;2.80;;
76892;SDS011;65854;51.466;7.260;2023-02-01T17:41:31;10.37;;;2.60;;
76892;SDS011;65854;51.466;7.260;2023-02-01T17:43:57;14.77;;;2.97;;
76892;SDS011;65854;51.466;7.260;2023-02-01T17:46:22;16.33;;;4.07;;
76892;SDS011;65854;51.466;7.260;2023-02-01T17:48:51;16.67;;;3.50;;
76892;SDS011;65854;51.466;7.260;2023-02-01T17:51:22;20.73;;;8.85;;
76892;SDS011;65854;51.466;7.260;2023-02-01T17:53:49;25.45;;;9.30;;